Time;durP1;ratioP1;P1;durP2;ratioP2;P2;SDS_P1;SDS_P2;PMS_P1;PMS_P2;Temp;Humidity;BMP_temperature;BMP_pressure;BME280_temperature;BME280_humidity;BME280_pressure;Samples;Min_cycle;Max_cycle;Signal;HPM_P1;HPM_P2
2022/11/27 00:01:54;;;;;;;42.37;15.40;;;6.70;99.90;;;;;;6183685;23;20195;-44
2022/11/27 00:04:19;;;;;;;40.73;16.97;;;6.70;99.90;;;;;;6183060;23;20230;-44
2022/11/27 00:06:45;;;;;;;53.40;16.90;;;6.60;99.90;;;;;;6184334;23;20147;-44
2022/11/27 00:09:13;;;;;;;37.27;15.80;;;6.50;99.90;;;;;;6183577;23;20159;-44
2022/11/27 00:11:39;;;;;;;36.27;14.33;;;6.50;99.90;;;;;;6183180;23;20218;-44
2022/11/27 00:14:05;;;;;;;34.17;14.77;;;6.50;99.90;;;;;;6183611;23;20445;-44
2022/11/27 00:16:32;;;;;;;52.37;16.80;;;6.40;99.90;;;;;;6183332;23;20526;-44
2022/11/27 00:18:57;;;;;;;42.27;15.83;;;6.40;99.90;;;;;;6183571;23;20367;-44
2022/11/27 00:21:28;;;;;;;39.20;16.83;;;6.30;99.90;;;;;;6183658;23;20667;-44
2022/11/27 00:23:57;;;;;;;47.73;17.17;;;6.30;99.90;;;;;;6183367;23;20262;-45
2022/11/27 00:26:23;;;;;;;47.83;18.53;;;6.30;99.90;;;;;;6183620;23;20437;-44
2022/11/27 00:28:49;;;;;;;40.90;17.27;;;6.20;99.90;;;;;;6183249;23;20366;-44
2022/11/27 00:31:27;;;;;;;53.43;18.40;;;6.10;99.90;;;;;;6183524;23;20382;-44
2022/11/27 00:34:00;;;;;;;45.03;18.83;;;6.10;99.90;;;;;;6183251;23;20367;-44
2022/11/27 00:36:28;;;;;;;47.97;18.33;;;6.00;99.90;;;;;;6183028;23;20432;-44
2022/11/27 00:38:54;;;;;;;52.50;18.37;;;5.90;99.90;;;;;;6183253;23;20383;-44
2022/11/27 00:41:25;;;;;;;47.83;19.67;;;5.90;99.90;;;;;;6183669;23;20453;-44
2022/11/27 00:43:51;;;;;;;65.30;20.30;;;5.90;99.90;;;;;;6182942;23;20473;-44
2022/11/27 00:46:19;;;;;;;59.60;18.73;;;5.90;99.90;;;;;;6183728;23;20374;-45
2022/11/27 00:48:45;;;;;;;68.07;21.70;;;5.80;99.90;;;;;;6183395;23;20151;-44
2022/11/27 00:51:16;;;;;;;46.50;20.17;;;5.80;99.90;;;;;;6183336;23;20676;-44
2022/11/27 00:53:42;;;;;;;44.63;20.00;;;5.70;99.90;;;;;;6183240;23;20201;-44
2022/11/27 00:56:13;;;;;;;52.70;21.57;;;5.70;99.90;;;;;;6182974;23;20394;-44
2022/11/27 00:58:38;;;;;;;57.10;20.20;;;5.70;99.90;;;;;;6183102;23;20373;-44
2022/11/27 01:01:06;;;;;;;53.97;20.00;;;5.60;99.90;;;;;;6182283;23;20446;-44
2022/11/27 01:03:32;;;;;;;48.23;19.70;;;5.60;99.90;;;;;;6157325;23;20279;-51
2022/11/27 01:06:04;;;;;;;72.97;22.20;;;5.50;99.90;;;;;;6183710;23;20363;-52
2022/11/27 01:08:30;;;;;;;47.83;20.03;;;5.50;99.90;;;;;;6183362;23;20367;-51
2022/11/27 01:10:57;;;;;;;57.67;20.50;;;5.40;99.90;;;;;;6183360;23;20384;-52
2022/11/27 01:13:25;;;;;;;63.40;21.13;;;5.40;99.90;;;;;;6183251;23;20161;-52
2022/11/27 01:16:05;;;;;;;59.77;19.53;;;5.40;99.90;;;;;;6156866;23;21091;-51
2022/11/27 01:18:32;;;;;;;67.83;19.50;;;5.30;99.90;;;;;;6183079;23;20374;-51
2022/11/27 01:20:58;;;;;;;52.43;19.70;;;5.30;99.90;;;;;;6183540;23;20398;-51
2022/11/27 01:23:23;;;;;;;52.23;19.53;;;5.30;99.90;;;;;;6183242;23;20422;-51
2022/11/27 01:25:52;;;;;;;40.33;16.90;;;5.20;99.90;;;;;;6183625;23;20159;-52
2022/11/27 01:28:17;;;;;;;40.30;17.27;;;5.20;99.90;;;;;;6181615;23;20150;-51
2022/11/27 01:30:43;;;;;;;36.63;17.30;;;5.10;99.90;;;;;;6183468;23;20876;-51
2022/11/27 01:33:08;;;;;;;43.77;18.40;;;5.10;99.90;;;;;;6183793;23;20150;-50
2022/11/27 01:35:34;;;;;;;46.13;16.80;;;5.10;99.90;;;;;;6184084;23;20198;-51
2022/11/27 01:37:59;;;;;;;41.07;16.67;;;5.00;99.90;;;;;;6183739;23;20210;-51
2022/11/27 01:40:25;;;;;;;42.07;15.17;;;5.00;99.90;;;;;;6156457;23;20151;-51
2022/11/27 01:42:51;;;;;;;39.53;15.13;;;5.00;99.90;;;;;;6183708;23;20589;-51
2022/11/27 01:45:19;;;;;;;38.67;15.13;;;5.00;99.90;;;;;;6183777;23;20159;-51
2022/11/27 01:47:51;;;;;;;44.97;14.93;;;5.00;99.90;;;;;;6183016;23;20207;-51
2022/11/27 01:50:27;;;;;;;37.23;15.43;;;5.00;99.90;;;;;;6182802;23;20450;-51
2022/11/27 01:52:57;;;;;;;44.23;15.50;;;4.90;99.90;;;;;;6182862;23;20745;-51
2022/11/27 01:55:37;;;;;;;46.00;15.27;;;5.00;99.90;;;;;;6184473;23;20386;-49
2022/11/27 01:58:10;;;;;;;35.07;14.10;;;4.90;99.90;;;;;;6184775;23;20432;-51
2022/11/27 02:00:37;;;;;;;37.03;14.47;;;4.90;99.90;;;;;;6184655;23;20780;-50
2022/11/27 02:03:02;;;;;;;29.40;13.30;;;4.80;99.90;;;;;;6185060;23;20426;-51
2022/11/27 02:05:28;;;;;;;41.67;13.17;;;4.80;99.90;;;;;;6185237;23;20371;-51
2022/11/27 02:07:57;;;;;;;36.50;13.10;;;4.80;99.90;;;;;;6185007;23;20166;-57
2022/11/27 02:10:48;;;;;;;33.83;13.43;;;4.70;99.90;;;;;;6184380;23;20386;-50
2022/11/27 02:13:25;;;;;;;55.97;14.93;;;4.70;99.90;;;;;;6184955;23;20367;-50
2022/11/27 02:16:17;;;;;;;36.20;14.17;;;4.70;99.90;;;;;;6185158;23;20377;-50
2022/11/27 02:18:51;;;;;;;31.73;14.83;;;4.60;99.90;;;;;;6184533;23;20392;-50
2022/11/27 02:21:32;;;;;;;43.87;15.30;;;4.60;99.90;;;;;;6184538;23;20800;-50
2022/11/27 02:24:16;;;;;;;40.60;15.30;;;4.60;99.90;;;;;;6184400;23;20405;-50
2022/11/27 02:27:10;;;;;;;39.93;15.17;;;4.50;99.90;;;;;;6158466;23;20387;-50
2022/11/27 02:29:39;;;;;;;50.50;16.57;;;4.50;99.90;;;;;;6184290;23;20378;-50
2022/11/27 02:32:14;;;;;;;53.67;15.50;;;4.50;99.90;;;;;;6184786;23;20382;-50
2022/11/27 02:35:02;;;;;;;48.37;16.40;;;4.50;99.90;;;;;;6184473;23;20468;-50
2022/11/27 02:37:54;;;;;;;60.70;16.90;;;4.50;99.90;;;;;;6184419;23;20908;-50
2022/11/27 02:40:26;;;;;;;43.50;17.00;;;4.50;99.90;;;;;;6184759;23;20367;-50
2022/11/27 02:43:09;;;;;;;47.40;16.87;;;4.50;99.90;;;;;;6185054;23;20422;-50
2022/11/27 02:45:40;;;;;;;49.50;17.50;;;4.50;99.90;;;;;;6184520;23;20378;-50
2022/11/27 02:48:07;;;;;;;45.50;17.30;;;4.40;99.90;;;;;;6185152;23;20374;-49
2022/11/27 02:50:35;;;;;;;40.93;16.20;;;4.40;99.90;;;;;;6184705;23;20371;-49
2022/11/27 02:53:08;;;;;;;43.20;14.87;;;4.40;99.90;;;;;;6184672;23;20378;-50
2022/11/27 02:55:37;;;;;;;43.63;16.50;;;4.40;99.90;;;;;;6184247;23;20446;-49
2022/11/27 02:58:08;;;;;;;40.93;15.17;;;4.30;99.90;;;;;;6184949;23;20380;-50
2022/11/27 03:00:34;;;;;;;40.83;15.27;;;4.30;99.90;;;;;;6184630;23;20398;-49
2022/11/27 03:03:05;;;;;;;52.77;16.23;;;4.30;99.90;;;;;;6184745;23;20454;-50
2022/11/27 03:05:36;;;;;;;45.00;14.10;;;4.30;99.90;;;;;;6184452;23;20378;-53
2022/11/27 03:08:10;;;;;;;42.07;15.33;;;4.30;99.90;;;;;;6184707;23;20394;-52
2022/11/27 03:10:55;;;;;;;39.13;15.77;;;4.30;99.90;;;;;;6184192;23;20808;-49
2022/11/27 03:13:21;;;;;;;48.70;15.13;;;4.30;99.90;;;;;;6184244;23;20363;-49
2022/11/27 03:16:09;;;;;;;40.90;16.37;;;4.20;99.90;;;;;;6183541;23;20381;-49
2022/11/27 03:18:42;;;;;;;46.40;15.97;;;4.30;99.90;;;;;;6158203;23;20163;-49
2022/11/27 03:21:31;;;;;;;35.00;15.23;;;4.30;99.90;;;;;;6184451;23;20379;-50
2022/11/27 03:23:57;;;;;;;33.43;14.33;;;4.40;99.90;;;;;;6184511;23;20424;-49
2022/11/27 03:26:24;;;;;;;40.53;14.13;;;4.40;99.90;;;;;;6184412;23;20402;-49
2022/11/27 03:28:51;;;;;;;46.27;16.50;;;4.40;99.90;;;;;;6183976;23;20363;-49
2022/11/27 03:31:17;;;;;;;50.17;15.70;;;4.40;99.90;;;;;;6184561;23;20371;-49
2022/11/27 03:33:43;;;;;;;47.87;17.10;;;4.40;99.90;;;;;;6184022;23;20432;-49
2022/11/27 03:36:17;;;;;;;48.13;17.40;;;4.40;99.90;;;;;;6184113;23;20589;-49
2022/11/27 03:38:45;;;;;;;47.23;15.77;;;4.40;99.90;;;;;;6184402;23;20479;-48
2022/11/27 03:41:28;;;;;;;42.60;15.13;;;4.30;99.90;;;;;;6184337;23;20695;-49
2022/11/27 03:44:14;;;;;;;38.77;15.20;;;4.30;99.90;;;;;;6183326;23;20883;-50
2022/11/27 03:47:07;;;;;;;40.00;16.00;;;4.30;99.90;;;;;;6183674;23;20828;-49
2022/11/27 03:49:39;;;;;;;45.03;14.70;;;4.30;99.90;;;;;;6183963;23;20445;-49
2022/11/27 03:52:34;;;;;;;36.77;14.70;;;4.30;99.90;;;;;;6184206;23;20364;-49
2022/11/27 03:55:20;;;;;;;38.23;15.47;;;4.20;99.90;;;;;;6184445;23;20363;-49
2022/11/27 03:57:55;;;;;;;40.07;15.60;;;4.20;99.90;;;;;;6184243;23;20810;-50
2022/11/27 04:00:21;;;;;;;38.43;15.83;;;4.20;99.90;;;;;;6183704;23;20841;-51
2022/11/27 04:02:50;;;;;;;38.40;15.40;;;4.20;99.90;;;;;;6183536;23;20477;-49
2022/11/27 04:05:17;;;;;;;40.83;15.57;;;4.10;99.90;;;;;;6183760;23;20383;-50
2022/11/27 04:07:42;;;;;;;37.03;14.23;;;4.30;99.90;;;;;;6182359;23;20401;-49
2022/11/27 04:10:10;;;;;;;37.90;14.20;;;4.30;99.90;;;;;;6183792;23;20390;-48
2022/11/27 04:12:36;;;;;;;37.67;15.60;;;4.20;99.90;;;;;;6184280;23;20151;-48
2022/11/27 04:15:02;;;;;;;35.03;15.20;;;4.30;99.90;;;;;;6184220;23;20362;-48
2022/11/27 04:17:27;;;;;;;44.80;15.30;;;4.30;99.90;;;;;;6157095;23;20209;-49
2022/11/27 04:19:53;;;;;;;40.30;16.67;;;4.20;99.90;;;;;;6183905;23;20841;-49
2022/11/27 04:22:18;;;;;;;43.87;15.70;;;4.10;99.90;;;;;;6183993;23;20573;-49
2022/11/27 04:24:44;;;;;;;40.77;16.07;;;4.10;99.90;;;;;;6183960;23;20688;-48
2022/11/27 04:27:10;;;;;;;42.70;16.30;;;4.10;99.90;;;;;;6183587;23;20144;-48
2022/11/27 04:29:35;;;;;;;47.13;15.40;;;4.10;99.90;;;;;;6183169;23;20139;-49
2022/11/27 04:32:01;;;;;;;33.80;15.20;;;4.10;99.90;;;;;;6183205;23;20143;-49
2022/11/27 04:34:27;;;;;;;48.53;15.20;;;4.00;99.90;;;;;;6157328;23;20166;-49
2022/11/27 04:36:53;;;;;;;38.30;16.00;;;4.10;99.90;;;;;;6183636;23;21199;-49
2022/11/27 04:39:19;;;;;;;40.43;15.63;;;4.20;99.90;;;;;;6184384;23;20175;-48
2022/11/27 04:41:44;;;;;;;36.00;16.30;;;4.10;99.90;;;;;;6183709;23;20528;-49
2022/11/27 04:44:11;;;;;;;42.37;15.90;;;4.10;99.90;;;;;;6183254;23;20422;-49
2022/11/27 04:46:36;;;;;;;44.27;16.60;;;4.20;99.90;;;;;;6183349;23;20139;-49
2022/11/27 04:49:02;;;;;;;39.43;15.80;;;4.20;99.90;;;;;;6183692;23;20420;-49
2022/11/27 04:51:28;;;;;;;40.60;16.77;;;4.20;99.90;;;;;;6183630;23;20174;-49
2022/11/27 04:53:53;;;;;;;46.27;18.17;;;4.20;99.90;;;;;;6183346;23;20144;-49
2022/11/27 04:56:19;;;;;;;38.90;16.87;;;4.20;99.90;;;;;;6183215;23;20159;-49
2022/11/27 04:58:45;;;;;;;38.03;18.67;;;4.20;99.90;;;;;;6183144;23;20155;-49
2022/11/27 05:01:10;;;;;;;51.13;20.27;;;4.20;99.90;;;;;;6183016;23;20152;-49
2022/11/27 05:03:36;;;;;;;38.83;18.00;;;4.10;99.90;;;;;;6182985;23;20186;-49
2022/11/27 05:06:02;;;;;;;36.77;17.47;;;4.10;99.90;;;;;;6183435;23;20590;-49
2022/11/27 05:08:29;;;;;;;53.63;20.37;;;4.10;99.90;;;;;;6182595;23;20434;-49
2022/11/27 05:11:06;;;;;;;55.90;20.93;;;4.10;99.90;;;;;;6183009;23;20154;-49
2022/11/27 05:13:32;;;;;;;45.10;19.03;;;4.10;99.90;;;;;;6182893;23;20856;-48
2022/11/27 05:15:58;;;;;;;50.30;21.43;;;4.10;99.90;;;;;;6157129;23;20382;-49
2022/11/27 05:18:24;;;;;;;54.60;22.03;;;4.10;99.90;;;;;;6183378;23;20162;-49
2022/11/27 05:21:02;;;;;;;50.27;21.30;;;4.20;99.90;;;;;;6183151;23;20476;-49
2022/11/27 05:23:28;;;;;;;58.20;23.63;;;4.10;99.90;;;;;;6183010;23;20202;-49
2022/11/27 05:25:54;;;;;;;58.43;23.00;;;4.00;99.90;;;;;;6182993;23;20363;-50
2022/11/27 05:28:21;;;;;;;46.60;21.30;;;4.00;99.90;;;;;;6183591;23;20149;-49
2022/11/27 05:30:48;;;;;;;48.30;22.07;;;3.90;99.90;;;;;;6186376;23;20158;-48
2022/11/27 05:33:14;;;;;;;63.90;23.00;;;4.00;99.90;;;;;;6187578;23;20371;-49
2022/11/27 05:35:40;;;;;;;53.50;23.77;;;4.00;99.90;;;;;;6187263;23;20452;-49
2022/11/27 05:38:05;;;;;;;47.17;23.00;;;4.00;99.90;;;;;;6186424;23;20769;-49
2022/11/27 05:40:31;;;;;;;56.73;24.03;;;4.00;99.90;;;;;;6187013;23;20546;-48
2022/11/27 05:42:57;;;;;;;55.97;23.10;;;4.00;99.90;;;;;;6186868;23;20182;-49
2022/11/27 05:45:22;;;;;;;58.77;25.17;;;3.90;99.90;;;;;;6187228;23;20155;-49
2022/11/27 05:47:48;;;;;;;55.60;24.97;;;3.90;99.90;;;;;;6187462;23;20257;-50
2022/11/27 05:50:13;;;;;;;68.53;25.90;;;3.90;99.90;;;;;;6186320;23;20147;-49
2022/11/27 05:52:39;;;;;;;58.00;25.90;;;3.90;99.90;;;;;;6186720;23;20139;-49
2022/11/27 05:55:05;;;;;;;62.40;25.77;;;3.90;99.90;;;;;;6186508;23;20558;-49
2022/11/27 05:57:31;;;;;;;70.30;28.70;;;3.90;99.90;;;;;;6186284;23;20150;-52
2022/11/27 05:59:57;;;;;;;68.00;27.30;;;3.90;99.90;;;;;;6186914;23;20374;-50
2022/11/27 06:02:23;;;;;;;60.40;24.50;;;3.90;99.90;;;;;;6186319;23;20173;-49
2022/11/27 06:04:49;;;;;;;61.83;26.43;;;3.90;99.90;;;;;;6185969;23;20444;-50
2022/11/27 06:07:15;;;;;;;63.63;26.17;;;3.90;99.90;;;;;;6186582;23;20809;-48
2022/11/27 06:09:40;;;;;;;58.13;26.20;;;3.90;99.90;;;;;;6186557;23;20582;-50
2022/11/27 06:12:06;;;;;;;63.30;26.87;;;3.80;99.90;;;;;;6186371;23;20213;-50
2022/11/27 06:14:33;;;;;;;59.30;26.03;;;3.80;99.90;;;;;;6186319;23;20707;-50
2022/11/27 06:17:00;;;;;;;63.07;26.23;;;3.90;99.90;;;;;;6186151;23;20151;-50
2022/11/27 06:19:26;;;;;;;58.97;24.13;;;3.90;99.90;;;;;;6186246;23;20370;-50
2022/11/27 06:21:51;;;;;;;59.87;25.33;;;3.90;99.90;;;;;;6186066;23;21104;-51
2022/11/27 06:24:17;;;;;;;48.13;24.23;;;3.90;99.90;;;;;;6185875;23;21118;-50
2022/11/27 06:26:42;;;;;;;56.33;24.67;;;3.90;99.90;;;;;;6186292;23;20468;-50
2022/11/27 06:29:08;;;;;;;52.67;23.93;;;3.90;99.90;;;;;;6186198;23;20237;-50
2022/11/27 06:31:34;;;;;;;55.67;25.43;;;3.80;99.90;;;;;;6185964;23;20166;-50
2022/11/27 06:34:02;;;;;;;50.10;23.93;;;3.80;99.90;;;;;;6185343;23;20421;-49
2022/11/27 06:36:33;;;;;;;50.63;24.77;;;3.80;97.10;;;;;;6185837;23;20402;-49
2022/11/27 06:39:00;;;;;;;56.33;24.07;;;3.70;93.70;;;;;;6186147;23;20374;-49
2022/11/27 06:41:26;;;;;;;48.93;24.10;;;3.60;84.00;;;;;;6183844;23;20501;-50
2022/11/27 06:43:53;;;;;;;48.53;23.80;;;3.60;76.00;;;;;;6184085;23;20425;-50
2022/11/27 06:46:21;;;;;;;41.83;21.60;;;3.50;69.50;;;;;;6184246;23;20367;-50
2022/11/27 06:48:49;;;;;;;52.03;23.50;;;3.50;61.60;;;;;;6184550;23;20382;-50
2022/11/27 06:51:17;;;;;;;51.27;23.87;;;3.50;61.00;;;;;;6184723;23;20391;-51
2022/11/27 06:53:43;;;;;;;50.60;22.87;;;3.60;59.90;;;;;;6183743;23;20394;-51
2022/11/27 06:56:11;;;;;;;49.80;22.57;;;3.60;58.00;;;;;;6184606;23;20454;-50
2022/11/27 06:58:37;;;;;;;55.63;22.87;;;3.60;56.00;;;;;;6184244;23;20466;-51
2022/11/27 07:01:08;;;;;;;48.23;22.47;;;3.60;49.10;;;;;;6184344;23;20474;-49
2022/11/27 07:03:34;;;;;;;62.57;25.70;;;3.50;39.90;;;;;;6184036;23;20198;-50
2022/11/27 07:06:01;;;;;;;53.13;25.30;;;3.50;30.60;;;;;;6184061;23;20828;-50
2022/11/27 07:08:27;;;;;;;48.10;23.00;;;3.50;28.60;;;;;;6184302;23;20370;-51
2022/11/27 07:10:53;;;;;;;50.87;23.57;;;3.50;25.40;;;;;;6184118;23;20389;-50
2022/11/27 07:13:19;;;;;;;48.37;24.47;;;3.40;17.80;;;;;;6183962;23;20391;-50
2022/11/27 07:15:45;;;;;;;48.53;24.07;;;3.40;18.20;;;;;;6184578;23;20218;-50
2022/11/27 07:18:10;;;;;;;50.40;23.90;;;3.40;16.70;;;;;;6184004;23;20189;-51
2022/11/27 07:20:36;;;;;;;54.37;23.60;;;3.30;16.70;;;;;;6184157;23;20242;-50
2022/11/27 07:23:02;;;;;;;57.00;24.20;;;3.20;12.30;;;;;;6184167;23;20187;-50
2022/11/27 07:25:27;;;;;;;57.77;23.87;;;3.20;11.90;;;;;;6183783;23;20151;-50
2022/11/27 07:27:54;;;;;;;51.83;24.57;;;3.30;17.20;;;;;;6183962;23;20222;-50
2022/11/27 07:30:20;;;;;;;57.00;25.60;;;3.30;20.20;;;;;;6184041;23;20583;-50
2022/11/27 07:32:45;;;;;;;52.20;25.37;;;3.30;20.60;;;;;;6183577;23;20363;-51
2022/11/27 07:35:11;;;;;;;46.73;22.87;;;3.20;19.30;;;;;;6183876;23;20146;-51
2022/11/27 07:37:37;;;;;;;48.40;23.20;;;3.30;22.70;;;;;;6183499;23;20207;-50
2022/11/27 07:40:03;;;;;;;53.90;22.53;;;3.30;27.60;;;;;;6183823;23;20509;-50
2022/11/27 07:42:29;;;;;;;56.43;24.03;;;3.30;30.00;;;;;;6184217;23;20154;-51
2022/11/27 07:44:55;;;;;;;46.77;22.20;;;3.40;33.90;;;;;;6183724;23;20486;-51
2022/11/27 07:47:20;;;;;;;54.20;21.77;;;3.40;35.90;;;;;;6183844;23;20409;-51
2022/11/27 07:49:47;;;;;;;40.23;20.70;;;3.40;37.20;;;;;;6184206;23;20144;-52
2022/11/27 07:52:13;;;;;;;49.37;22.20;;;3.50;38.80;;;;;;6185173;23;20206;-51
2022/11/27 07:54:38;;;;;;;50.00;22.30;;;3.60;36.20;;;;;;6185166;23;20390;-51
2022/11/27 07:57:04;;;;;;;41.73;21.60;;;3.50;26.70;;;;;;6185559;23;20226;-51
2022/11/27 07:59:31;;;;;;;45.50;21.70;;;3.60;20.50;;;;;;6184257;23;20242;-51
2022/11/27 08:01:56;;;;;;;44.87;21.07;;;3.70;16.80;;;;;;6183858;23;20379;-52
2022/11/27 08:04:22;;;;;;;44.67;20.70;;;3.70;9.10;;;;;;6183363;23;20175;-54
2022/11/27 08:06:48;;;;;;;51.13;21.50;;;3.70;1.00;;;;;;6183570;23;20159;-52
2022/11/27 08:09:13;;;;;;;48.03;20.30;;;3.70;1.00;;;;;;6183495;23;20192;-51
2022/11/27 08:11:39;;;;;;;39.10;18.30;;;3.80;1.00;;;;;;6183884;23;20382;-52
2022/11/27 08:14:06;;;;;;;34.17;17.93;;;3.80;1.00;;;;;;6183580;23;20148;-53
2022/11/27 08:16:33;;;;;;;40.93;19.27;;;3.80;1.00;;;;;;6183203;23;20237;-53
2022/11/27 08:18:59;;;;;;;41.10;18.40;;;3.90;1.00;;;;;;6183530;23;20367;-53
2022/11/27 08:21:26;;;;;;;42.30;19.03;;;3.90;1.00;;;;;;6183145;23;20362;-53
2022/11/27 08:23:51;;;;;;;39.73;17.90;;;4.00;1.00;;;;;;6183466;23;20183;-53
2022/11/27 08:26:17;;;;;;;39.67;18.20;;;4.00;1.00;;;;;;6183180;23;20378;-54
2022/11/27 08:28:43;;;;;;;46.40;18.87;;;4.10;1.00;;;;;;6183743;23;20234;-54
2022/11/27 08:31:11;;;;;;;37.33;17.63;;;4.10;1.00;;;;;;6183443;23;20401;-54
2022/11/27 08:33:36;;;;;;;43.87;18.43;;;4.20;1.00;;;;;;6183307;23;20160;-54
2022/11/27 08:36:03;;;;;;;41.03;17.40;;;4.30;1.00;;;;;;6155935;23;20406;-54
2022/11/27 08:38:29;;;;;;;39.60;17.07;;;4.30;1.00;;;;;;6183124;23;20199;-55
2022/11/27 08:40:56;;;;;;;32.07;16.07;;;4.40;1.00;;;;;;6183238;23;20480;-55
2022/11/27 08:43:22;;;;;;;33.73;15.67;;;4.40;1.00;;;;;;6183299;23;20178;-53
2022/11/27 08:45:48;;;;;;;29.63;14.90;;;4.30;1.00;;;;;;6183242;23;20374;-54
2022/11/27 08:48:13;;;;;;;35.00;17.03;;;4.40;1.00;;;;;;6183872;23;20374;-55
2022/11/27 08:50:39;;;;;;;37.57;15.83;;;4.40;1.00;;;;;;6183372;23;20140;-55
2022/11/27 08:53:04;;;;;;;28.60;15.40;;;4.40;1.00;;;;;;6183408;23;20358;-56
2022/11/27 08:55:30;;;;;;;29.57;14.60;;;4.50;1.00;;;;;;6183332;23;20910;-55
2022/11/27 08:57:55;;;;;;;27.43;14.00;;;4.50;1.00;;;;;;6183183;23;20150;-55
2022/11/27 09:00:21;;;;;;;33.53;14.57;;;4.50;99.90;;;;;;6183436;23;20155;-55
2022/11/27 09:02:47;;;;;;;30.43;13.67;;;4.50;99.90;;;;;;6183019;23;20143;-55
2022/11/27 09:05:12;;;;;;;29.17;13.60;;;4.50;99.90;;;;;;6183360;23;20155;-56
2022/11/27 09:07:39;;;;;;;25.07;13.90;;;4.50;99.90;;;;;;6182745;23;20273;-55
2022/11/27 09:10:06;;;;;;;25.93;14.30;;;4.60;99.90;;;;;;6183538;23;20144;-53
2022/11/27 09:12:32;;;;;;;29.97;14.47;;;4.70;99.90;;;;;;6183470;23;20967;-56
2022/11/27 09:14:57;;;;;;;32.43;14.70;;;4.70;99.90;;;;;;6182951;23;20367;-56
2022/11/27 09:17:23;;;;;;;34.00;16.63;;;4.80;99.90;;;;;;6183223;23;20669;-56
2022/11/27 09:19:48;;;;;;;26.03;14.00;;;4.80;99.90;;;;;;6183158;23;20159;-56
2022/11/27 09:22:14;;;;;;;26.50;13.13;;;4.80;99.90;;;;;;6183290;23;20202;-55
2022/11/27 09:24:40;;;;;;;24.30;14.20;;;4.90;99.90;;;;;;6183130;23;20246;-56
2022/11/27 09:27:05;;;;;;;27.40;12.53;;;4.80;99.90;;;;;;6183508;23;20205;-57
2022/11/27 09:29:33;;;;;;;27.37;13.47;;;4.80;99.90;;;;;;6183230;23;20218;-56
2022/11/27 09:31:59;;;;;;;24.37;12.60;;;4.70;99.90;;;;;;6184083;23;20722;-57
2022/11/27 09:34:24;;;;;;;29.60;12.43;;;4.70;99.90;;;;;;6183920;23;20406;-56
2022/11/27 09:36:50;;;;;;;29.17;12.80;;;4.70;99.90;;;;;;6183356;23;20202;-56
2022/11/27 09:39:18;;;;;;;25.37;12.50;;;4.70;99.90;;;;;;6184141;23;20267;-56
2022/11/27 09:41:56;;;;;;;28.37;13.50;;;4.70;99.90;;;;;;6184274;23;20148;-55
2022/11/27 09:44:47;;;;;;;24.00;12.57;;;4.70;99.90;;;;;;6184629;23;20505;-54
2022/11/27 09:47:21;;;;;;;34.70;15.53;;;4.90;99.90;;;;;;6184651;23;20722;-56
2022/11/27 09:49:51;;;;;;;24.40;13.30;;;5.10;99.90;;;;;;6184295;23;20377;-57
2022/11/27 09:52:37;;;;;;;27.57;12.80;;;5.30;99.90;;;;;;6184063;23;20386;-55
2022/11/27 09:55:19;;;;;;;23.83;11.80;;;5.50;99.90;;;;;;6184464;23;20821;-55
2022/11/27 09:57:55;;;;;;;23.20;11.33;;;5.50;6.20;;;;;;6184321;23;20373;-55
2022/11/27 10:00:21;;;;;;;24.67;12.30;;;5.60;1.00;;;;;;6158340;23;20396;-56
2022/11/27 10:02:47;;;;;;;22.80;12.20;;;5.60;1.00;;;;;;6157751;23;20418;-55
2022/11/27 10:05:23;;;;;;;22.10;12.07;;;5.50;1.00;;;;;;6185278;23;20156;-56
2022/11/27 10:07:51;;;;;;;22.33;11.67;;;5.50;1.00;;;;;;6184375;23;20375;-56
2022/11/27 10:10:31;;;;;;;25.43;12.40;;;5.40;1.00;;;;;;6184530;23;20367;-54
2022/11/27 10:13:17;;;;;;;25.80;12.10;;;5.40;1.00;;;;;;6184692;23;20398;-54
2022/11/27 10:16:13;;;;;;;24.17;11.87;;;5.40;1.00;;;;;;6185281;23;20451;-54
2022/11/27 10:18:46;;;;;;;21.30;12.30;;;5.40;1.00;;;;;;6186088;23;20373;-54
2022/11/27 10:21:53;;;;;;;23.67;12.83;;;5.40;1.00;;;;;;6185963;23;20370;-53
2022/11/27 10:24:30;;;;;;;25.60;12.40;;;5.50;6.20;;;;;;6136243;23;20446;-55
2022/11/27 10:26:58;;;;;;;27.30;12.67;;;5.60;1.00;;;;;;6187124;23;20397;-54
2022/11/27 10:29:35;;;;;;;24.13;12.37;;;5.60;1.00;;;;;;6185794;23;20703;-55
2022/11/27 10:32:14;;;;;;;26.03;11.90;;;5.70;1.00;;;;;;6186876;23;20366;-55
2022/11/27 10:34:47;;;;;;;23.30;12.53;;;5.80;1.00;;;;;;6185280;23;20835;-54
2022/11/27 10:37:17;;;;;;;22.67;12.57;;;5.80;1.00;;;;;;6185745;23;20437;-54
2022/11/27 10:40:01;;;;;;;23.23;12.07;;;6.20;1.00;;;;;;6186116;23;20886;-54
2022/11/27 10:42:33;;;;;;;18.37;10.80;;;6.50;1.00;;;;;;6185877;23;20448;-55
2022/11/27 10:45:06;;;;;;;25.27;12.47;;;6.70;99.90;;;;;;6185910;23;20429;-54
2022/11/27 10:47:32;;;;;;;24.90;11.83;;;6.90;10.60;;;;;;6185770;23;20733;-55
2022/11/27 10:49:58;;;;;;;18.90;10.87;;;7.00;1.00;;;;;;6185747;23;20387;-54
2022/11/27 10:52:24;;;;;;;19.23;10.70;;;7.10;1.00;;;;;;6186158;23;20374;-54
2022/11/27 10:54:57;;;;;;;20.63;12.13;;;7.10;1.00;;;;;;6186258;23;20213;-54
2022/11/27 10:57:23;;;;;;;23.07;11.07;;;6.90;99.90;;;;;;6186012;23;20814;-54
2022/11/27 11:00:15;;;;;;;23.40;12.30;;;6.90;1.00;;;;;;6185897;23;20370;-54
2022/11/27 11:02:40;;;;;;;19.93;11.70;;;6.80;99.90;;;;;;6184881;23;20475;-54
2022/11/27 11:05:32;;;;;;;25.90;11.37;;;6.70;1.00;;;;;;6184809;23;20418;-54
2022/11/27 11:08:19;;;;;;;29.60;12.07;;;6.70;1.00;;;;;;6180071;23;20163;-54
2022/11/27 11:10:57;;;;;;;24.00;11.97;;;6.60;1.00;;;;;;6184265;23;20369;-54
2022/11/27 11:13:27;;;;;;;28.00;12.83;;;6.50;1.00;;;;;;6184857;23;20374;-54
2022/11/27 11:16:11;;;;;;;22.90;12.30;;;6.50;1.00;;;;;;6185349;23;20421;-53
2022/11/27 11:18:48;;;;;;;20.60;12.90;;;6.40;9.10;;;;;;6184086;23;20432;-54
2022/11/27 11:21:27;;;;;;;23.93;12.70;;;6.30;99.90;;;;;;6184577;23;20389;-52
2022/11/27 11:24:01;;;;;;;23.43;12.47;;;6.30;99.90;;;;;;6184692;23;20431;-54
2022/11/27 11:26:49;;;;;;;22.87;13.70;;;6.30;99.90;;;;;;6184705;23;20403;-53
2022/11/27 11:29:45;;;;;;;23.30;12.27;;;6.30;1.00;;;;;;6185172;23;20367;-54
2022/11/27 11:32:24;;;;;;;18.90;11.20;;;6.40;1.00;;;;;;6185324;23;20836;-50
2022/11/27 11:34:52;;;;;;;18.23;11.60;;;6.50;1.00;;;;;;6185326;23;20892;-54
2022/11/27 11:37:28;;;;;;;26.60;12.33;;;6.50;99.90;;;;;;6184193;23;20445;-54
2022/11/27 11:40:03;;;;;;;21.70;11.73;;;6.50;99.90;;;;;;6185863;23;20366;-54
2022/11/27 11:42:31;;;;;;;19.73;11.97;;;6.60;99.90;;;;;;6185076;23;20436;-54
2022/11/27 11:45:03;;;;;;;21.93;11.60;;;6.60;99.90;;;;;;6184865;23;20425;-53
2022/11/27 11:47:28;;;;;;;22.70;12.67;;;6.60;99.90;;;;;;6184599;23;20377;-53
2022/11/27 11:49:56;;;;;;;21.67;11.83;;;6.60;99.90;;;;;;6185553;23;20374;-53
2022/11/27 11:52:43;;;;;;;20.03;11.97;;;6.60;1.00;;;;;;6185714;23;20171;-54
2022/11/27 11:55:20;;;;;;;25.13;11.93;;;6.60;1.00;;;;;;6185389;23;20386;-53
2022/11/27 11:57:55;;;;;;;36.47;21.20;;;6.60;1.00;;;;;;6184762;23;20393;-53
2022/11/27 12:00:23;;;;;;;21.57;11.10;;;6.70;1.00;;;;;;6185342;23;20401;-53
2022/11/27 12:03:17;;;;;;;17.77;10.70;;;6.70;99.90;;;;;;6184941;23;20887;-53
2022/11/27 12:05:57;;;;;;;20.77;11.80;;;6.70;99.90;;;;;;6185527;23;20416;-53
2022/11/27 12:08:22;;;;;;;21.57;11.00;;;6.70;99.90;;;;;;6184468;23;20361;-53
2022/11/27 12:11:15;;;;;;;18.70;12.27;;;6.70;99.90;;;;;;6182837;23;21217;-53
2022/11/27 12:13:48;;;;;;;21.60;10.23;;;6.80;99.90;;;;;;6154071;23;20175;-53
2022/11/27 12:16:23;;;;;;;19.00;9.43;;;6.90;99.90;;;;;;6157944;23;20441;-54
2022/11/27 12:19:18;;;;;;;19.87;9.97;;;6.90;99.90;;;;;;6157524;23;20401;-53
2022/11/27 12:21:59;;;;;;;19.97;9.50;;;7.00;99.90;;;;;;6184584;23;20413;-53
2022/11/27 12:24:37;;;;;;;20.77;10.63;;;7.00;99.90;;;;;;6184486;23;20433;-53
2022/11/27 12:27:10;;;;;;;16.07;9.47;;;7.00;12.00;;;;;;6186361;23;20899;-56
2022/11/27 12:29:48;;;;;;;19.10;9.53;;;7.00;1.00;;;;;;6185210;23;20888;-52
2022/11/27 12:32:26;;;;;;;20.30;9.90;;;7.00;1.00;;;;;;6184388;23;20365;-54
2022/11/27 12:35:26;;;;;;;16.93;9.93;;;7.00;1.00;;;;;;6184533;23;20405;-53
2022/11/27 12:38:10;;;;;;;16.97;9.40;;;7.00;1.00;;;;;;6184253;23;20438;-50
2022/11/27 12:40:55;;;;;;;16.60;9.90;;;7.00;1.00;;;;;;6182594;23;20362;-53
2022/11/27 12:43:32;;;;;;;18.67;9.63;;;7.00;99.90;;;;;;6184229;23;20429;-54
2022/11/27 12:46:15;;;;;;;14.60;9.40;;;6.90;1.00;;;;;;6183772;23;20466;-53
2022/11/27 12:48:57;;;;;;;18.30;9.30;;;6.90;1.00;;;;;;6182318;23;20370;-53
2022/11/27 12:51:38;;;;;;;21.37;9.40;;;6.80;1.00;;;;;;6181965;23;20355;-53
2022/11/27 12:54:14;;;;;;;16.33;10.20;;;6.70;1.00;;;;;;6180522;23;20367;-52
2022/11/27 12:56:59;;;;;;;15.23;8.97;;;6.80;1.00;;;;;;6158078;23;20377;-53
2022/11/27 12:59:33;;;;;;;15.53;8.90;;;6.80;1.00;;;;;;6182155;23;20481;-52